sensor_id;sensor_type;location;lat;lon;timestamp;pressure;altitude;pressure_sealevel;temperature;humidity
69570;BME280;56781;42.292;23.146;2023-04-03T00:00:39;94950.50;;;1.57;100.00
69570;BME280;56781;42.292;23.146;2023-04-03T00:03:06;94951.84;;;1.59;100.00
69570;BME280;56781;42.292;23.146;2023-04-03T00:05:34;94953.66;;;1.53;100.00
69570;BME280;56781;42.292;23.146;2023-04-03T00:08:01;94967.44;;;1.18;100.00
69570;BME280;56781;42.292;23.146;2023-04-03T00:10:37;94967.78;;;0.95;100.00
69570;BME280;56781;42.292;23.146;2023-04-03T00:13:06;94942.75;;;0.92;100.00
69570;BME280;56781;42.292;23.146;2023-04-03T00:15:34;94951.41;;;0.87;100.00
69570;BME280;56781;42.292;23.146;2023-04-03T00:18:02;94952.81;;;0.63;100.00
69570;BME280;56781;42.292;23.146;2023-04-03T00:20:29;94938.41;;;0.71;100.00
69570;BME280;56781;42.292;23.146;2023-04-03T00:22:57;94939.69;;;0.68;100.00
69570;BME280;56781;42.292;23.146;2023-04-03T00:25:24;94922.31;;;0.72;100.00
69570;BME280;56781;42.292;23.146;2023-04-03T00:27:51;94939.06;;;1.30;100.00
69570;BME280;56781;42.292;23.146;2023-04-03T00:30:20;94934.69;;;1.09;100.00
69570;BME280;56781;42.292;23.146;2023-04-03T00:32:51;94931.81;;;0.73;100.00
69570;BME280;56781;42.292;23.146;2023-04-03T00:35:20;94930.56;;;0.49;100.00
69570;BME280;56781;42.292;23.146;2023-04-03T00:37:48;94930.78;;;0.74;100.00
69570;BME280;56781;42.292;23.146;2023-04-03T00:40:17;94941.59;;;0.78;100.00
69570;BME280;56781;42.292;23.146;2023-04-03T00:42:47;94979.50;;;1.09;100.00
69570;BME280;56781;42.292;23.146;2023-04-03T00:47:45;94904.72;;;0.46;100.00
69570;BME280;56781;42.292;23.146;2023-04-03T00:50:12;94970.94;;;0.92;100.00
69570;BME280;56781;42.292;23.146;2023-04-03T00:52:39;94936.56;;;0.71;100.00
69570;BME280;56781;42.292;23.146;2023-04-03T00:55:08;94957.44;;;0.83;100.00
69570;BME280;56781;42.292;23.146;2023-04-03T00:57:36;94957.69;;;0.81;100.00
69570;BME280;56781;42.292;23.146;2023-04-03T01:00:11;94964.09;;;0.58;100.00
69570;BME280;56781;42.292;23.146;2023-04-03T01:02:39;94959.09;;;0.62;100.00
69570;BME280;56781;42.292;23.146;2023-04-03T01:05:08;94953.31;;;0.60;100.00
69570;BME280;56781;42.292;23.146;2023-04-03T01:07:35;94978.66;;;0.12;100.00
69570;BME280;56781;42.292;23.146;2023-04-03T01:10:07;94970.44;;;-0.19;100.00
69570;BME280;56781;42.292;23.146;2023-04-03T01:12:37;95010.09;;;0.24;100.00
69570;BME280;56781;42.292;23.146;2023-04-03T01:15:11;94975.09;;;0.50;100.00
69570;BME280;56781;42.292;23.146;2023-04-03T01:25:13;94972.53;;;-0.60;100.00
69570;BME280;56781;42.292;23.146;2023-04-03T01:27:40;94969.81;;;-0.26;100.00
69570;BME280;56781;42.292;23.146;2023-04-03T01:30:08;94966.25;;;-0.15;100.00
69570;BME280;56781;42.292;23.146;2023-04-03T01:32:35;94976.81;;;0.12;100.00
69570;BME280;56781;42.292;23.146;2023-04-03T01:35:02;94959.25;;;0.18;100.00
69570;BME280;56781;42.292;23.146;2023-04-03T01:37:30;94999.28;;;0.20;100.00
69570;BME280;56781;42.292;23.146;2023-04-03T01:39:57;94968.41;;;-0.34;100.00
69570;BME280;56781;42.292;23.146;2023-04-03T01:42:24;94967.78;;;-0.41;100.00
69570;BME280;56781;42.292;23.146;2023-04-03T01:44:51;94989.78;;;-0.47;100.00
69570;BME280;56781;42.292;23.146;2023-04-03T01:47:18;94952.56;;;-0.61;100.00
69570;BME280;56781;42.292;23.146;2023-04-03T01:49:46;94961.06;;;-0.54;100.00
69570;BME280;56781;42.292;23.146;2023-04-03T01:52:13;94962.78;;;-0.42;100.00
69570;BME280;56781;42.292;23.146;2023-04-03T01:54:40;94986.88;;;-0.07;100.00
69570;BME280;56781;42.292;23.146;2023-04-03T01:57:07;94991.19;;;0.05;100.00
69570;BME280;56781;42.292;23.146;2023-04-03T01:59:34;94982.97;;;0.23;100.00
69570;BME280;56781;42.292;23.146;2023-04-03T02:02:02;94904.72;;;-0.14;100.00
69570;BME280;56781;42.292;23.146;2023-04-03T02:04:29;94952.00;;;0.03;100.00
69570;BME280;56781;42.292;23.146;2023-04-03T02:06:56;94953.97;;;-0.09;100.00
69570;BME280;56781;42.292;23.146;2023-04-03T02:09:23;94963.41;;;-0.13;100.00
69570;BME280;56781;42.292;23.146;2023-04-03T02:11:50;94969.66;;;0.08;100.00
69570;BME280;56781;42.292;23.146;2023-04-03T02:14:17;94961.69;;;0.03;100.00
69570;BME280;56781;42.292;23.146;2023-04-03T02:16:44;94967.13;;;0.18;100.00
69570;BME280;56781;42.292;23.146;2023-04-03T02:19:12;94947.59;;;0.09;100.00
69570;BME280;56781;42.292;23.146;2023-04-03T02:21:39;94942.41;;;0.19;100.00
69570;BME280;56781;42.292;23.146;2023-04-03T02:24:06;94953.16;;;-0.10;100.00
69570;BME280;56781;42.292;23.146;2023-04-03T02:26:33;94975.63;;;-0.24;100.00
69570;BME280;56781;42.292;23.146;2023-04-03T02:29:01;94940.09;;;0.22;100.00
69570;BME280;56781;42.292;23.146;2023-04-03T02:31:28;94941.31;;;0.15;100.00
69570;BME280;56781;42.292;23.146;2023-04-03T02:33:55;94951.75;;;-0.17;100.00
69570;BME280;56781;42.292;23.146;2023-04-03T02:36:22;94937.41;;;-0.32;100.00
69570;BME280;56781;42.292;23.146;2023-04-03T02:38:49;94930.88;;;-0.73;100.00
69570;BME280;56781;42.292;23.146;2023-04-03T02:41:16;94934.75;;;-0.98;100.00
69570;BME280;56781;42.292;23.146;2023-04-03T02:43:43;94918.09;;;-0.86;100.00
69570;BME280;56781;42.292;23.146;2023-04-03T02:46:10;94923.06;;;-0.85;100.00
69570;BME280;56781;42.292;23.146;2023-04-03T02:48:38;94930.56;;;-0.55;100.00
69570;BME280;56781;42.292;23.146;2023-04-03T02:51:05;94928.97;;;-0.56;100.00
69570;BME280;56781;42.292;23.146;2023-04-03T02:53:32;94938.25;;;-0.26;100.00
69570;BME280;56781;42.292;23.146;2023-04-03T02:55:59;94916.53;;;-0.38;100.00
69570;BME280;56781;42.292;23.146;2023-04-03T02:58:26;94901.72;;;-0.23;100.00
69570;BME280;56781;42.292;23.146;2023-04-03T03:00:54;94903.03;;;0.02;100.00
69570;BME280;56781;42.292;23.146;2023-04-03T03:03:21;94903.44;;;-0.11;100.00
69570;BME280;56781;42.292;23.146;2023-04-03T03:05:48;94903.84;;;-0.47;100.00
69570;BME280;56781;42.292;23.146;2023-04-03T03:08:15;94898.34;;;-0.45;100.00
69570;BME280;56781;42.292;23.146;2023-04-03T03:10:42;94921.19;;;-0.24;100.00
69570;BME280;56781;42.292;23.146;2023-04-03T03:13:11;94901.28;;;-0.14;100.00
69570;BME280;56781;42.292;23.146;2023-04-03T03:15:38;94918.81;;;0.02;100.00
69570;BME280;56781;42.292;23.146;2023-04-03T03:18:05;94893.28;;;0.03;100.00
69570;BME280;56781;42.292;23.146;2023-04-03T03:20:32;94901.63;;;-0.06;100.00
69570;BME280;56781;42.292;23.146;2023-04-03T03:23:00;94892.16;;;-0.56;100.00
69570;BME280;56781;42.292;23.146;2023-04-03T03:25:27;94894.56;;;-0.54;100.00
69570;BME280;56781;42.292;23.146;2023-04-03T03:27:54;94884.28;;;-0.07;100.00
69570;BME280;56781;42.292;23.146;2023-04-03T03:30:21;94870.88;;;-0.05;100.00
69570;BME280;56781;42.292;23.146;2023-04-03T03:32:48;94888.53;;;-0.01;100.00
69570;BME280;56781;42.292;23.146;2023-04-03T03:35:16;94874.97;;;0.13;100.00
69570;BME280;56781;42.292;23.146;2023-04-03T03:37:43;94880.75;;;0.10;100.00
69570;BME280;56781;42.292;23.146;2023-04-03T03:40:10;94881.47;;;-0.27;100.00
69570;BME280;56781;42.292;23.146;2023-04-03T03:42:39;94888.84;;;-0.24;100.00
69570;BME280;56781;42.292;23.146;2023-04-03T03:45:07;94880.63;;;-0.28;100.00
69570;BME280;56781;42.292;23.146;2023-04-03T03:47:34;94892.81;;;-0.43;100.00
69570;BME280;56781;42.292;23.146;2023-04-03T03:50:02;94873.13;;;-0.41;100.00
69570;BME280;56781;42.292;23.146;2023-04-03T03:52:30;94867.78;;;-0.51;100.00
69570;BME280;56781;42.292;23.146;2023-04-03T03:54:57;94875.91;;;-0.53;100.00
69570;BME280;56781;42.292;23.146;2023-04-03T03:57:24;94905.00;;;-0.37;100.00
69570;BME280;56781;42.292;23.146;2023-04-03T03:59:53;94882.22;;;-0.54;100.00
69570;BME280;56781;42.292;23.146;2023-04-03T04:02:21;94875.63;;;-0.29;100.00
69570;BME280;56781;42.292;23.146;2023-04-03T04:04:48;94882.75;;;-0.03;100.00
69570;BME280;56781;42.292;23.146;2023-04-03T04:07:16;94876.09;;;0.17;100.00
69570;BME280;56781;42.292;23.146;2023-04-03T04:09:43;94883.97;;;0.17;100.00
69570;BME280;56781;42.292;23.146;2023-04-03T04:12:10;94887.19;;;0.24;100.00
69570;BME280;56781;42.292;23.146;2023-04-03T04:14:37;94879.78;;;0.21;100.00
69570;BME280;56781;42.292;23.146;2023-04-03T04:17:04;94868.66;;;0.41;100.00
69570;BME280;56781;42.292;23.146;2023-04-03T04:19:31;94898.03;;;0.65;100.00
69570;BME280;56781;42.292;23.146;2023-04-03T04:21:59;94873.69;;;0.48;100.00
69570;BME280;56781;42.292;23.146;2023-04-03T04:24:27;94883.75;;;0.56;100.00
69570;BME280;56781;42.292;23.146;2023-04-03T04:26:54;94888.34;;;0.76;100.00
69570;BME280;56781;42.292;23.146;2023-04-03T04:29:21;94922.31;;;1.09;100.00
69570;BME280;56781;42.292;23.146;2023-04-03T04:31:48;94904.50;;;0.84;100.00
69570;BME280;56781;42.292;23.146;2023-04-03T04:34:15;94898.44;;;0.47;100.00
69570;BME280;56781;42.292;23.146;2023-04-03T04:36:42;94888.84;;;0.30;100.00
69570;BME280;56781;42.292;23.146;2023-04-03T04:39:10;94892.81;;;0.38;100.00
69570;BME280;56781;42.292;23.146;2023-04-03T04:41:37;94908.66;;;0.43;100.00
69570;BME280;56781;42.292;23.146;2023-04-03T04:44:04;94913.38;;;0.73;100.00
69570;BME280;56781;42.292;23.146;2023-04-03T04:46:31;94912.41;;;0.84;100.00
69570;BME280;56781;42.292;23.146;2023-04-03T04:48:58;94926.16;;;0.92;100.00
69570;BME280;56781;42.292;23.146;2023-04-03T04:51:26;94918.16;;;0.76;100.00
69570;BME280;56781;42.292;23.146;2023-04-03T04:54:01;94915.03;;;0.84;100.00
69570;BME280;56781;42.292;23.146;2023-04-03T04:56:28;94953.00;;;1.26;100.00
69570;BME280;56781;42.292;23.146;2023-04-03T04:58:56;94926.84;;;1.19;100.00
69570;BME280;56781;42.292;23.146;2023-04-03T05:01:23;94910.16;;;1.08;100.00
69570;BME280;56781;42.292;23.146;2023-04-03T05:03:50;94925.38;;;1.39;100.00
69570;BME280;56781;42.292;23.146;2023-04-03T05:06:18;94930.47;;;1.55;100.00
69570;BME280;56781;42.292;23.146;2023-04-03T05:08:45;94919.19;;;1.75;100.00
69570;BME280;56781;42.292;23.146;2023-04-03T05:11:12;94930.31;;;1.88;100.00
69570;BME280;56781;42.292;23.146;2023-04-03T05:13:39;94923.44;;;1.87;100.00
69570;BME280;56781;42.292;23.146;2023-04-03T05:16:06;94928.72;;;1.87;100.00
69570;BME280;56781;42.292;23.146;2023-04-03T05:18:33;94930.34;;;2.08;100.00
69570;BME280;56781;42.292;23.146;2023-04-03T05:21:00;94940.44;;;2.27;100.00
69570;BME280;56781;42.292;23.146;2023-04-03T05:23:28;94913.47;;;2.19;100.00
69570;BME280;56781;42.292;23.146;2023-04-03T05:25:55;94920.91;;;2.17;100.00
69570;BME280;56781;42.292;23.146;2023-04-03T05:28:22;94932.03;;;2.55;100.00
69570;BME280;56781;42.292;23.146;2023-04-03T05:30:53;94927.81;;;2.70;100.00
69570;BME280;56781;42.292;23.146;2023-04-03T05:33:22;94918.81;;;2.81;100.00
69570;BME280;56781;42.292;23.146;2023-04-03T05:35:49;94908.78;;;2.83;100.00
69570;BME280;56781;42.292;23.146;2023-04-03T05:38:16;94912.44;;;3.13;100.00
69570;BME280;56781;42.292;23.146;2023-04-03T05:40:44;94904.97;;;3.30;100.00
69570;BME280;56781;42.292;23.146;2023-04-03T05:43:11;94913.03;;;3.74;100.00
69570;BME280;56781;42.292;23.146;2023-04-03T05:45:38;94901.44;;;4.15;100.00
69570;BME280;56781;42.292;23.146;2023-04-03T05:48:05;94928.22;;;4.53;100.00
69570;BME280;56781;42.292;23.146;2023-04-03T05:50:32;94895.72;;;4.37;100.00
69570;BME280;56781;42.292;23.146;2023-04-03T05:53:00;94896.19;;;4.83;100.00
69570;BME280;56781;42.292;23.146;2023-04-03T05:55:29;94931.00;;;5.06;100.00
69570;BME280;56781;42.292;23.146;2023-04-03T05:57:56;94917.50;;;5.02;99.03
69570;BME280;56781;42.292;23.146;2023-04-03T06:00:23;94897.72;;;4.89;100.00
69570;BME280;56781;42.292;23.146;2023-04-03T06:02:50;94917.03;;;5.24;100.00
69570;BME280;56781;42.292;23.146;2023-04-03T06:05:17;94894.94;;;5.29;99.38
69570;BME280;56781;42.292;23.146;2023-04-03T06:07:44;94918.22;;;5.61;99.07
69570;BME280;56781;42.292;23.146;2023-04-03T06:10:12;94886.44;;;5.32;98.01
69570;BME280;56781;42.292;23.146;2023-04-03T06:12:39;94893.16;;;5.48;98.83
69570;BME280;56781;42.292;23.146;2023-04-03T06:15:07;94885.78;;;5.64;98.81
69570;BME280;56781;42.292;23.146;2023-04-03T06:17:37;94916.06;;;6.11;97.87
69570;BME280;56781;42.292;23.146;2023-04-03T06:20:04;94889.19;;;6.13;96.02
69570;BME280;56781;42.292;23.146;2023-04-03T06:22:32;94898.31;;;6.26;94.85
69570;BME280;56781;42.292;23.146;2023-04-03T06:24:59;94898.97;;;6.17;94.90
69570;BME280;56781;42.292;23.146;2023-04-03T06:27:27;94919.00;;;6.10;96.12
69570;BME280;56781;42.292;23.146;2023-04-03T06:29:54;94896.94;;;6.09;95.14
69570;BME280;56781;42.292;23.146;2023-04-03T06:32:21;94887.47;;;6.41;93.75
69570;BME280;56781;42.292;23.146;2023-04-03T06:34:48;94880.94;;;6.33;92.52
69570;BME280;56781;42.292;23.146;2023-04-03T06:37:21;94890.91;;;6.60;91.25
69570;BME280;56781;42.292;23.146;2023-04-03T06:39:49;94894.56;;;6.46;93.67
69570;BME280;56781;42.292;23.146;2023-04-03T06:42:16;94913.44;;;6.82;92.28
69570;BME280;56781;42.292;23.146;2023-04-03T06:44:43;94911.09;;;6.94;92.29
69570;BME280;56781;42.292;23.146;2023-04-03T06:47:13;94883.81;;;6.70;91.77
69570;BME280;56781;42.292;23.146;2023-04-03T06:49:40;94888.84;;;6.90;92.43
69570;BME280;56781;42.292;23.146;2023-04-03T06:52:08;94884.81;;;7.06;90.79
69570;BME280;56781;42.292;23.146;2023-04-03T06:54:35;94892.63;;;7.17;93.14
69570;BME280;56781;42.292;23.146;2023-04-03T06:57:02;94896.19;;;7.26;91.69
69570;BME280;56781;42.292;23.146;2023-04-03T06:59:30;94888.69;;;7.14;91.58
69570;BME280;56781;42.292;23.146;2023-04-03T07:01:57;94881.59;;;7.37;92.61
69570;BME280;56781;42.292;23.146;2023-04-03T07:04:26;94862.38;;;7.40;93.29
69570;BME280;56781;42.292;23.146;2023-04-03T07:06:53;94869.97;;;7.61;91.08
69570;BME280;56781;42.292;23.146;2023-04-03T07:09:20;94853.50;;;7.72;89.92
69570;BME280;56781;42.292;23.146;2023-04-03T07:11:48;94841.72;;;7.73;90.75
69570;BME280;56781;42.292;23.146;2023-04-03T07:14:15;94830.81;;;8.11;87.95
69570;BME280;56781;42.292;23.146;2023-04-03T07:16:42;94824.22;;;8.45;86.73
69570;BME280;56781;42.292;23.146;2023-04-03T07:19:09;94815.53;;;8.39;86.08
69570;BME280;56781;42.292;23.146;2023-04-03T07:21:36;94843.03;;;8.94;87.24
69570;BME280;56781;42.292;23.146;2023-04-03T07:24:04;94846.63;;;8.89;84.98
69570;BME280;56781;42.292;23.146;2023-04-03T07:26:31;94810.50;;;8.60;85.33
69570;BME280;56781;42.292;23.146;2023-04-03T07:28:58;94832.50;;;8.88;85.00
69570;BME280;56781;42.292;23.146;2023-04-03T07:31:26;94820.09;;;8.93;82.19
69570;BME280;56781;42.292;23.146;2023-04-03T07:33:53;94813.81;;;8.88;81.70
69570;BME280;56781;42.292;23.146;2023-04-03T07:36:22;94798.00;;;9.01;83.34
69570;BME280;56781;42.292;23.146;2023-04-03T07:38:49;94796.16;;;8.79;85.67
69570;BME280;56781;42.292;23.146;2023-04-03T07:41:18;94783.91;;;8.78;84.85
69570;BME280;56781;42.292;23.146;2023-04-03T07:43:46;94796.44;;;9.00;85.09
69570;BME280;56781;42.292;23.146;2023-04-03T07:46:14;94763.44;;;8.64;86.05
69570;BME280;56781;42.292;23.146;2023-04-03T07:48:41;94777.13;;;9.03;85.78
69570;BME280;56781;42.292;23.146;2023-04-03T07:51:09;94781.38;;;9.04;83.65
69570;BME280;56781;42.292;23.146;2023-04-03T07:53:37;94783.63;;;9.19;83.97
69570;BME280;56781;42.292;23.146;2023-04-03T07:56:04;94786.47;;;9.23;83.98
69570;BME280;56781;42.292;23.146;2023-04-03T07:58:32;94779.94;;;9.55;85.74
69570;BME280;56781;42.292;23.146;2023-04-03T08:00:59;94774.31;;;9.65;83.58
69570;BME280;56781;42.292;23.146;2023-04-03T08:03:27;94786.94;;;10.26;82.24
69570;BME280;56781;42.292;23.146;2023-04-03T08:05:54;94771.84;;;10.12;80.79
69570;BME280;56781;42.292;23.146;2023-04-03T08:08:22;94774.06;;;10.45;80.69
69570;BME280;56781;42.292;23.146;2023-04-03T08:10:53;94755.41;;;10.75;78.39
69570;BME280;56781;42.292;23.146;2023-04-03T08:13:21;94769.16;;;11.12;78.26
69570;BME280;56781;42.292;23.146;2023-04-03T08:15:49;94751.44;;;11.87;75.75
69570;BME280;56781;42.292;23.146;2023-04-03T08:18:16;94745.19;;;12.71;66.90
69570;BME280;56781;42.292;23.146;2023-04-03T08:20:43;94773.59;;;13.17;66.19
69570;BME280;56781;42.292;23.146;2023-04-03T08:23:11;94734.09;;;13.55;63.67
69570;BME280;56781;42.292;23.146;2023-04-03T08:25:42;94729.16;;;14.09;61.22
69570;BME280;56781;42.292;23.146;2023-04-03T08:28:10;94735.59;;;13.80;59.98
69570;BME280;56781;42.292;23.146;2023-04-03T08:30:39;94753.88;;;13.74;61.98
69570;BME280;56781;42.292;23.146;2023-04-03T08:33:08;94731.28;;;13.51;62.82
69570;BME280;56781;42.292;23.146;2023-04-03T08:35:41;94715.34;;;13.21;61.37
69570;BME280;56781;42.292;23.146;2023-04-03T08:38:09;94719.38;;;13.03;64.66
69570;BME280;56781;42.292;23.146;2023-04-03T08:40:38;94718.06;;;13.34;63.05
69570;BME280;56781;42.292;23.146;2023-04-03T08:45:50;94710.44;;;13.11;61.84
69570;BME280;56781;42.292;23.146;2023-04-03T08:48:23;94705.69;;;12.83;62.59
69570;BME280;56781;42.292;23.146;2023-04-03T08:50:58;94705.47;;;12.76;62.93
69570;BME280;56781;42.292;23.146;2023-04-03T08:53:32;94700.53;;;12.66;62.52
69570;BME280;56781;42.292;23.146;2023-04-03T08:56:06;94696.25;;;12.53;61.37
69570;BME280;56781;42.292;23.146;2023-04-03T08:59:19;94712.81;;;12.67;63.64
69570;BME280;56781;42.292;23.146;2023-04-03T09:01:40;94692.03;;;12.31;63.12
69570;BME280;56781;42.292;23.146;2023-04-03T09:04:13;94676.25;;;12.29;62.03
69570;BME280;56781;42.292;23.146;2023-04-03T09:06:45;94669.03;;;12.42;61.35
69570;BME280;56781;42.292;23.146;2023-04-03T09:09:32;94676.03;;;12.68;61.60
69570;BME280;56781;42.292;23.146;2023-04-03T09:12:23;94695.50;;;12.89;61.74
69570;BME280;56781;42.292;23.146;2023-04-03T09:15:15;94688.25;;;12.90;61.27
69570;BME280;56781;42.292;23.146;2023-04-03T09:18:10;94664.13;;;12.44;60.86
69570;BME280;56781;42.292;23.146;2023-04-03T09:23:28;94653.25;;;12.28;60.66
69570;BME280;56781;42.292;23.146;2023-04-03T09:26:03;94659.19;;;12.34;61.66
69570;BME280;56781;42.292;23.146;2023-04-03T09:28:36;94665.13;;;12.39;62.58
69570;BME280;56781;42.292;23.146;2023-04-03T09:31:21;94656.03;;;12.32;62.02
69570;BME280;56781;42.292;23.146;2023-04-03T09:33:52;94644.16;;;12.20;62.49
69570;BME280;56781;42.292;23.146;2023-04-03T09:36:48;94654.00;;;12.29;65.07
69570;BME280;56781;42.292;23.146;2023-04-03T09:39:18;94636.56;;;12.35;62.92
69570;BME280;56781;42.292;23.146;2023-04-03T09:41:59;94636.00;;;12.17;63.80
69570;BME280;56781;42.292;23.146;2023-04-03T09:44:36;94633.56;;;12.24;64.04
69570;BME280;56781;42.292;23.146;2023-04-03T09:52:42;94636.19;;;12.12;63.98
69570;BME280;56781;42.292;23.146;2023-04-03T09:55:23;94647.91;;;12.07;63.90
69570;BME280;56781;42.292;23.146;2023-04-03T09:58:01;94651.81;;;11.97;63.79
69570;BME280;56781;42.292;23.146;2023-04-03T10:00:34;94659.69;;;12.15;65.32
69570;BME280;56781;42.292;23.146;2023-04-03T10:03:03;94641.28;;;11.92;66.19
69570;BME280;56781;42.292;23.146;2023-04-03T10:08:19;94633.69;;;11.73;64.61
69570;BME280;56781;42.292;23.146;2023-04-03T10:11:04;94641.66;;;11.82;66.31
69570;BME280;56781;42.292;23.146;2023-04-03T10:13:33;94653.47;;;12.02;66.01
69570;BME280;56781;42.292;23.146;2023-04-03T10:16:19;94633.81;;;11.77;66.71
69570;BME280;56781;42.292;23.146;2023-04-03T10:22:16;94624.13;;;11.85;64.22
69570;BME280;56781;42.292;23.146;2023-04-03T10:24:56;94634.06;;;11.84;65.80
69570;BME280;56781;42.292;23.146;2023-04-03T10:38:51;94683.78;;;12.03;63.79
69570;BME280;56781;42.292;23.146;2023-04-03T10:44:23;94657.88;;;11.86;64.58
69570;BME280;56781;42.292;23.146;2023-04-03T10:47:05;94653.78;;;11.67;64.24
69570;BME280;56781;42.292;23.146;2023-04-03T10:52:43;94635.31;;;11.45;65.51
69570;BME280;56781;42.292;23.146;2023-04-03T10:57:56;94641.72;;;11.52;66.72
69570;BME280;56781;42.292;23.146;2023-04-03T11:00:46;94630.16;;;11.61;66.64
69570;BME280;56781;42.292;23.146;2023-04-03T11:03:30;94634.00;;;11.72;67.05
69570;BME280;56781;42.292;23.146;2023-04-03T11:06:02;94663.88;;;12.04;69.26
69570;BME280;56781;42.292;23.146;2023-04-03T11:09:00;94627.56;;;11.85;67.88
69570;BME280;56781;42.292;23.146;2023-04-03T11:11:34;94642.25;;;11.88;68.25
69570;BME280;56781;42.292;23.146;2023-04-03T11:14:25;94623.47;;;11.67;68.52
69570;BME280;56781;42.292;23.146;2023-04-03T11:19:37;94615.06;;;11.35;69.27
69570;BME280;56781;42.292;23.146;2023-04-03T11:22:29;94633.03;;;11.56;70.02
69570;BME280;56781;42.292;23.146;2023-04-03T11:28:04;94616.94;;;11.14;72.08
69570;BME280;56781;42.292;23.146;2023-04-03T11:36:46;94612.63;;;11.00;72.51
69570;BME280;56781;42.292;23.146;2023-04-03T11:41:43;94604.34;;;10.84;71.10
69570;BME280;56781;42.292;23.146;2023-04-03T11:44:31;94594.94;;;10.78;73.25
69570;BME280;56781;42.292;23.146;2023-04-03T11:47:00;94584.09;;;10.75;73.58
69570;BME280;56781;42.292;23.146;2023-04-03T12:08:47;94572.63;;;10.36;77.88
69570;BME280;56781;42.292;23.146;2023-04-03T12:11:28;94549.69;;;10.17;77.45
69570;BME280;56781;42.292;23.146;2023-04-03T12:16:41;94540.47;;;10.06;78.74
69570;BME280;56781;42.292;23.146;2023-04-03T12:36:15;94520.16;;;9.67;82.13
69570;BME280;56781;42.292;23.146;2023-04-03T12:41:23;94500.38;;;9.50;83.96
69570;BME280;56781;42.292;23.146;2023-04-03T12:44:21;94490.84;;;9.23;86.78
69570;BME280;56781;42.292;23.146;2023-04-03T12:46:52;94503.84;;;9.33;87.20
69570;BME280;56781;42.292;23.146;2023-04-03T12:51:47;94485.19;;;9.16;89.11
69570;BME280;56781;42.292;23.146;2023-04-03T12:54:30;94482.38;;;9.21;87.79
69570;BME280;56781;42.292;23.146;2023-04-03T12:57:25;94476.38;;;9.24;88.71
69570;BME280;56781;42.292;23.146;2023-04-03T12:59:54;94490.84;;;9.23;89.08
69570;BME280;56781;42.292;23.146;2023-04-03T13:02:30;94470.91;;;9.03;88.54
69570;BME280;56781;42.292;23.146;2023-04-03T13:05:05;94488.97;;;9.24;87.93
69570;BME280;56781;42.292;23.146;2023-04-03T13:07:35;94460.88;;;8.92;87.22
69570;BME280;56781;42.292;23.146;2023-04-03T13:12:45;94452.41;;;8.81;87.42
69570;BME280;56781;42.292;23.146;2023-04-03T13:15:19;94471.72;;;8.69;87.35
69570;BME280;56781;42.292;23.146;2023-04-03T13:17:47;94455.22;;;8.58;88.26
69570;BME280;56781;42.292;23.146;2023-04-03T13:25:26;94445.50;;;8.45;87.46
69570;BME280;56781;42.292;23.146;2023-04-03T13:27:54;94468.41;;;8.63;87.37
69570;BME280;56781;42.292;23.146;2023-04-03T13:30:39;94460.34;;;8.37;87.66
69570;BME280;56781;42.292;23.146;2023-04-03T13:33:28;94471.31;;;8.36;88.92
69570;BME280;56781;42.292;23.146;2023-04-03T13:36:13;94463.53;;;8.39;89.68
69570;BME280;56781;42.292;23.146;2023-04-03T13:38:43;94458.28;;;8.26;89.30
69570;BME280;56781;42.292;23.146;2023-04-03T13:41:27;94469.25;;;8.24;89.24
69570;BME280;56781;42.292;23.146;2023-04-03T13:43:56;94457.34;;;8.21;88.96
69570;BME280;56781;42.292;23.146;2023-04-03T13:46:37;94435.69;;;8.14;88.63
69570;BME280;56781;42.292;23.146;2023-04-03T13:49:19;94477.75;;;8.26;88.94
69570;BME280;56781;42.292;23.146;2023-04-03T13:51:47;94489.66;;;8.29;89.80
69570;BME280;56781;42.292;23.146;2023-04-03T13:54:36;94459.94;;;7.95;91.39
69570;BME280;56781;42.292;23.146;2023-04-03T13:57:13;94466.72;;;8.10;91.62
69570;BME280;56781;42.292;23.146;2023-04-03T13:59:41;94445.19;;;7.89;92.04
69570;BME280;56781;42.292;23.146;2023-04-03T14:07:12;94440.03;;;7.93;91.27
69570;BME280;56781;42.292;23.146;2023-04-03T14:09:40;94439.56;;;7.99;91.49
69570;BME280;56781;42.292;23.146;2023-04-03T14:12:35;94451.50;;;8.11;90.02
69570;BME280;56781;42.292;23.146;2023-04-03T14:15:10;94464.41;;;8.17;90.45
69570;BME280;56781;42.292;23.146;2023-04-03T14:17:42;94436.28;;;8.03;89.70
69570;BME280;56781;42.292;23.146;2023-04-03T14:20:15;94424.47;;;7.86;89.61
69570;BME280;56781;42.292;23.146;2023-04-03T14:22:43;94439.72;;;7.94;89.48
69570;BME280;56781;42.292;23.146;2023-04-03T14:25:11;94429.81;;;7.86;89.67
69570;BME280;56781;42.292;23.146;2023-04-03T14:27:46;94444.13;;;7.99;89.48
69570;BME280;56781;42.292;23.146;2023-04-03T14:30:29;94416.31;;;7.74;91.10
69570;BME280;56781;42.292;23.146;2023-04-03T14:32:57;94418.13;;;7.65;93.26
69570;BME280;56781;42.292;23.146;2023-04-03T14:35:25;94432.28;;;7.74;94.19
69570;BME280;56781;42.292;23.146;2023-04-03T14:37:55;94394.81;;;7.70;92.79
69570;BME280;56781;42.292;23.146;2023-04-03T14:40:25;94394.38;;;7.77;91.08
69570;BME280;56781;42.292;23.146;2023-04-03T14:42:53;94417.09;;;7.74;92.18
69570;BME280;56781;42.292;23.146;2023-04-03T14:45:23;94398.28;;;7.71;92.30
69570;BME280;56781;42.292;23.146;2023-04-03T14:47:52;94406.72;;;7.73;92.73
69570;BME280;56781;42.292;23.146;2023-04-03T14:50:23;94414.28;;;7.71;95.53
69570;BME280;56781;42.292;23.146;2023-04-03T14:52:54;94402.16;;;7.65;95.15
69570;BME280;56781;42.292;23.146;2023-04-03T14:55:23;94404.38;;;7.63;94.90
69570;BME280;56781;42.292;23.146;2023-04-03T14:57:52;94403.75;;;7.66;92.45
69570;BME280;56781;42.292;23.146;2023-04-03T15:00:21;94395.91;;;7.61;92.11
69570;BME280;56781;42.292;23.146;2023-04-03T15:02:48;94401.84;;;7.58;93.32
69570;BME280;56781;42.292;23.146;2023-04-03T15:05:19;94402.28;;;7.60;93.34
69570;BME280;56781;42.292;23.146;2023-04-03T15:07:54;94413.66;;;7.74;93.84